GMMH

Details ICAO GMMH (VIL)
Name DAKHLA
Region Morocco
Timezone Africa/El_Aaiun (UTC+0.0)
Plans Departing 35
Arriving 42
Stats Elevation 36 ft / 11 m (AMSL)
Location 23.718294° -15.931993°
Runways 1
Magnetic Variation 5.245° W
Sunrise 2018-02-22 07:33:09 UTC / 2018-02-22 07:33:09 Local
Sunset 2018-02-22 19:04:17 UTC / 2018-02-22 19:04:17 Local
Advertisement - Login to hide

Runways

ID Width Length Bearing (true) Bearing (mag) Surface Threshold Offset Overrun Length
03 148 ft / 45 m 9,886 ft / 3,013 m 22.66° 27.91° Asphalt 0 ft / 0 m 323 ft / 98 m
21 148 ft / 45 m 9,886 ft / 3,013 m 202.67° 207.92° Asphalt 0 ft / 0 m 377 ft / 115 m

Map

Weather


0- 5 10 15 20 25 30 35+ Temperature / ° C

Clouds and Precipitation
Forecast for 2018-02-22 12:00 UTC. Updated 2 hours ago

Ground ~20,000 ft ~40,000 ft Winds

METAR

GMMH 221100Z 12004KT 6000 SCT003 16/12 Q1013 NOSIG

TAF

TAF GMMH 220500Z 2206/2312 04014KT 8000 NSC= TAF GMML 220500Z 2206/2312 33010KT 4000 BR SCT020 BECMG 2206/2209 8000 NSW

Frequencies

Tower 118.10 MHz TWR
Warning: Do not use this data for real-world aviation or navigation. No guarantee of current accuracy is given.